sensor_id;sensor_type;location;lat;lon;timestamp;pressure;altitude;pressure_sealevel;temperature;humidity
31357;BME280;60001;48.404;11.738;2024-03-08T00:00:12;96238.88;;;3.40;74.65
31357;BME280;60001;48.404;11.738;2024-03-08T00:01:43;96237.50;;;3.31;74.50
31357;BME280;60001;48.404;11.738;2024-03-08T00:03:15;96241.34;;;3.28;74.76
31357;BME280;60001;48.404;11.738;2024-03-08T00:04:47;96242.13;;;3.36;74.66
31357;BME280;60001;48.404;11.738;2024-03-08T00:06:19;96234.50;;;3.34;74.15
31357;BME280;60001;48.404;11.738;2024-03-08T00:07:50;96237.06;;;3.41;74.28
31357;BME280;60001;48.404;11.738;2024-03-08T00:09:22;96239.47;;;3.42;74.38
31357;BME280;60001;48.404;11.738;2024-03-08T00:10:53;96240.91;;;3.32;74.70
31357;BME280;60001;48.404;11.738;2024-03-08T00:12:25;96217.31;;;3.13;74.57
31357;BME280;60001;48.404;11.738;2024-03-08T00:13:57;96232.16;;;3.13;75.67
31357;BME280;60001;48.404;11.738;2024-03-08T00:15:29;96222.13;;;3.10;75.68
31357;BME280;60001;48.404;11.738;2024-03-08T00:17:00;96240.63;;;3.01;76.26
31357;BME280;60001;48.404;11.738;2024-03-08T00:18:34;96225.97;;;3.07;75.63
31357;BME280;60001;48.404;11.738;2024-03-08T00:20:07;96231.38;;;3.06;75.79
31357;BME280;60001;48.404;11.738;2024-03-08T00:21:40;96226.28;;;3.24;75.32
31357;BME280;60001;48.404;11.738;2024-03-08T00:23:12;96219.06;;;3.19;75.59
31357;BME280;60001;48.404;11.738;2024-03-08T00:24:43;96225.34;;;3.12;75.83
31357;BME280;60001;48.404;11.738;2024-03-08T00:26:14;96222.16;;;3.03;75.95
31357;BME280;60001;48.404;11.738;2024-03-08T00:27:46;96209.13;;;2.96;75.96
31357;BME280;60001;48.404;11.738;2024-03-08T00:29:19;96216.91;;;3.16;75.60
31357;BME280;60001;48.404;11.738;2024-03-08T00:30:52;96219.56;;;2.96;76.47
31357;BME280;60001;48.404;11.738;2024-03-08T00:32:23;96181.94;;;2.72;77.04
31357;BME280;60001;48.404;11.738;2024-03-08T00:33:55;96209.94;;;2.97;76.39
31357;BME280;60001;48.404;11.738;2024-03-08T00:35:28;96205.72;;;3.02;76.47
31357;BME280;60001;48.404;11.738;2024-03-08T00:37:00;96205.91;;;3.01;76.61
31357;BME280;60001;48.404;11.738;2024-03-08T00:38:31;96204.09;;;3.08;75.65
31357;BME280;60001;48.404;11.738;2024-03-08T00:40:05;96199.47;;;3.10;76.02
31357;BME280;60001;48.404;11.738;2024-03-08T00:41:37;96212.53;;;3.03;75.72
31357;BME280;60001;48.404;11.738;2024-03-08T00:43:09;96201.25;;;3.16;75.68
31357;BME280;60001;48.404;11.738;2024-03-08T00:44:40;96197.84;;;3.09;75.11
31357;BME280;60001;48.404;11.738;2024-03-08T00:46:12;96207.50;;;3.09;75.49
31357;BME280;60001;48.404;11.738;2024-03-08T00:47:42;96202.88;;;3.04;75.89
31357;BME280;60001;48.404;11.738;2024-03-08T00:49:14;96200.06;;;3.06;75.64
31357;BME280;60001;48.404;11.738;2024-03-08T00:50:47;96200.50;;;3.02;76.23
31357;BME280;60001;48.404;11.738;2024-03-08T00:52:19;96198.06;;;3.08;75.71
31357;BME280;60001;48.404;11.738;2024-03-08T00:53:50;96205.88;;;3.14;75.65
31357;BME280;60001;48.404;11.738;2024-03-08T00:55:21;96203.53;;;2.93;75.63
31357;BME280;60001;48.404;11.738;2024-03-08T00:56:52;96204.69;;;3.03;75.97
31357;BME280;60001;48.404;11.738;2024-03-08T00:58:24;96193.94;;;2.80;76.42
31357;BME280;60001;48.404;11.738;2024-03-08T00:59:55;96199.53;;;2.90;76.17
31357;BME280;60001;48.404;11.738;2024-03-08T01:01:27;96188.84;;;2.98;75.97
31357;BME280;60001;48.404;11.738;2024-03-08T01:02:58;96189.84;;;3.04;75.88
31357;BME280;60001;48.404;11.738;2024-03-08T01:04:30;96193.88;;;3.00;76.35
31357;BME280;60001;48.404;11.738;2024-03-08T01:06:02;96187.03;;;2.99;76.06
31357;BME280;60001;48.404;11.738;2024-03-08T01:07:35;96184.66;;;2.97;76.16
31357;BME280;60001;48.404;11.738;2024-03-08T01:09:06;96190.06;;;3.02;75.62
31357;BME280;60001;48.404;11.738;2024-03-08T01:10:37;96184.03;;;3.02;75.39
31357;BME280;60001;48.404;11.738;2024-03-08T01:12:08;96188.53;;;2.75;77.01
31357;BME280;60001;48.404;11.738;2024-03-08T01:13:41;96175.47;;;2.82;76.79
31357;BME280;60001;48.404;11.738;2024-03-08T01:15:11;96180.88;;;2.87;77.06
31357;BME280;60001;48.404;11.738;2024-03-08T01:16:43;96182.88;;;2.91;76.77
31357;BME280;60001;48.404;11.738;2024-03-08T01:18:14;96187.09;;;2.92;77.07
31357;BME280;60001;48.404;11.738;2024-03-08T01:19:46;96171.88;;;2.83;76.74
31357;BME280;60001;48.404;11.738;2024-03-08T01:21:18;96172.69;;;2.70;77.05
31357;BME280;60001;48.404;11.738;2024-03-08T01:22:50;96178.50;;;2.79;77.19
31357;BME280;60001;48.404;11.738;2024-03-08T01:24:21;96171.09;;;2.69;78.17
31357;BME280;60001;48.404;11.738;2024-03-08T01:25:53;96169.72;;;2.66;77.60
31357;BME280;60001;48.404;11.738;2024-03-08T01:27:27;96167.31;;;2.65;77.76
31357;BME280;60001;48.404;11.738;2024-03-08T01:28:59;96169.69;;;2.80;77.74
31357;BME280;60001;48.404;11.738;2024-03-08T01:30:29;96166.47;;;2.71;78.33
31357;BME280;60001;48.404;11.738;2024-03-08T01:32:03;96161.88;;;2.80;77.57
31357;BME280;60001;48.404;11.738;2024-03-08T01:33:34;96166.88;;;2.81;77.67
31357;BME280;60001;48.404;11.738;2024-03-08T01:35:06;96156.47;;;2.74;77.87
31357;BME280;60001;48.404;11.738;2024-03-08T01:36:41;96154.44;;;2.70;78.30
31357;BME280;60001;48.404;11.738;2024-03-08T01:38:13;96151.81;;;2.83;78.07
31357;BME280;60001;48.404;11.738;2024-03-08T01:39:44;96152.41;;;2.85;77.83
31357;BME280;60001;48.404;11.738;2024-03-08T01:41:15;96161.22;;;2.84;77.77
31357;BME280;60001;48.404;11.738;2024-03-08T01:42:48;96150.41;;;2.81;77.89
31357;BME280;60001;48.404;11.738;2024-03-08T01:44:20;96144.75;;;2.90;77.47
31357;BME280;60001;48.404;11.738;2024-03-08T01:45:51;96140.81;;;2.74;77.80
31357;BME280;60001;48.404;11.738;2024-03-08T01:47:23;96138.00;;;2.69;78.57
31357;BME280;60001;48.404;11.738;2024-03-08T01:48:54;96137.81;;;2.71;78.31
31357;BME280;60001;48.404;11.738;2024-03-08T01:50:27;96134.59;;;2.75;78.05
31357;BME280;60001;48.404;11.738;2024-03-08T01:51:59;96132.78;;;2.76;78.77
31357;BME280;60001;48.404;11.738;2024-03-08T01:53:35;96133.19;;;2.73;78.17
31357;BME280;60001;48.404;11.738;2024-03-08T01:55:07;96125.81;;;2.57;79.32
31357;BME280;60001;48.404;11.738;2024-03-08T01:56:40;96120.59;;;2.57;79.40
31357;BME280;60001;48.404;11.738;2024-03-08T01:58:12;96127.78;;;2.68;78.91
31357;BME280;60001;48.404;11.738;2024-03-08T01:59:46;96121.63;;;2.56;79.12
31357;BME280;60001;48.404;11.738;2024-03-08T02:01:17;96131.66;;;2.59;79.04
31357;BME280;60001;48.404;11.738;2024-03-08T02:02:51;96105.44;;;2.40;79.01
31357;BME280;60001;48.404;11.738;2024-03-08T02:04:24;96132.47;;;2.53;79.56
31357;BME280;60001;48.404;11.738;2024-03-08T02:05:56;96128.41;;;2.63;79.38
31357;BME280;60001;48.404;11.738;2024-03-08T02:07:28;96121.38;;;2.64;78.92
31357;BME280;60001;48.404;11.738;2024-03-08T02:09:00;96117.78;;;2.65;79.52
31357;BME280;60001;48.404;11.738;2024-03-08T02:10:36;96125.38;;;2.73;78.85
31357;BME280;60001;48.404;11.738;2024-03-08T02:12:08;96112.56;;;2.71;78.67
31357;BME280;60001;48.404;11.738;2024-03-08T02:13:39;96113.53;;;2.70;78.49
31357;BME280;60001;48.404;11.738;2024-03-08T02:15:11;96109.19;;;2.64;78.85
31357;BME280;60001;48.404;11.738;2024-03-08T02:16:41;96107.00;;;2.55;79.00
31357;BME280;60001;48.404;11.738;2024-03-08T02:18:13;96095.59;;;2.42;79.75
31357;BME280;60001;48.404;11.738;2024-03-08T02:19:44;96107.56;;;2.57;79.68
31357;BME280;60001;48.404;11.738;2024-03-08T02:21:18;96102.34;;;2.63;79.21
31357;BME280;60001;48.404;11.738;2024-03-08T02:22:49;96101.53;;;2.63;78.90
31357;BME280;60001;48.404;11.738;2024-03-08T02:24:21;96098.13;;;2.62;78.96
31357;BME280;60001;48.404;11.738;2024-03-08T02:25:55;96098.69;;;2.71;78.47
31357;BME280;60001;48.404;11.738;2024-03-08T02:27:27;96095.50;;;2.69;78.87
31357;BME280;60001;48.404;11.738;2024-03-08T02:29:04;96101.16;;;2.59;78.80
31357;BME280;60001;48.404;11.738;2024-03-08T02:30:35;96071.72;;;2.52;78.12
31357;BME280;60001;48.404;11.738;2024-03-08T02:32:06;96097.34;;;2.62;78.75
31357;BME280;60001;48.404;11.738;2024-03-08T02:33:39;96095.28;;;2.70;78.42
31357;BME280;60001;48.404;11.738;2024-03-08T02:35:09;96086.97;;;2.42;79.77
31357;BME280;60001;48.404;11.738;2024-03-08T02:36:42;96083.81;;;2.33;79.24
31357;BME280;60001;48.404;11.738;2024-03-08T02:38:14;96085.09;;;2.62;78.46
31357;BME280;60001;48.404;11.738;2024-03-08T02:39:46;96081.91;;;2.60;78.11
31357;BME280;60001;48.404;11.738;2024-03-08T02:41:17;96083.47;;;2.68;78.06
31357;BME280;60001;48.404;11.738;2024-03-08T02:42:49;96091.88;;;2.70;78.26
31357;BME280;60001;48.404;11.738;2024-03-08T02:44:20;96084.69;;;2.72;77.74
31357;BME280;60001;48.404;11.738;2024-03-08T02:45:52;96081.06;;;2.73;77.49
31357;BME280;60001;48.404;11.738;2024-03-08T02:47:23;96086.84;;;2.75;77.99
31357;BME280;60001;48.404;11.738;2024-03-08T02:48:56;96080.53;;;2.58;78.67
31357;BME280;60001;48.404;11.738;2024-03-08T02:50:27;96087.09;;;2.67;78.29
31357;BME280;60001;48.404;11.738;2024-03-08T02:52:00;96082.47;;;2.69;77.67
31357;BME280;60001;48.404;11.738;2024-03-08T02:53:32;96068.56;;;2.37;78.90
31357;BME280;60001;48.404;11.738;2024-03-08T02:55:06;96088.19;;;2.39;79.05
31357;BME280;60001;48.404;11.738;2024-03-08T02:56:37;96083.56;;;2.48;79.22
31357;BME280;60001;48.404;11.738;2024-03-08T02:58:09;96075.72;;;2.55;78.37
31357;BME280;60001;48.404;11.738;2024-03-08T02:59:40;96075.72;;;2.48;78.22
31357;BME280;60001;48.404;11.738;2024-03-08T03:01:12;96073.09;;;2.55;78.64
31357;BME280;60001;48.404;11.738;2024-03-08T03:02:43;96080.16;;;2.47;78.67
31357;BME280;60001;48.404;11.738;2024-03-08T03:04:14;96073.72;;;2.50;78.50
31357;BME280;60001;48.404;11.738;2024-03-08T03:05:45;96075.97;;;2.40;79.18
31357;BME280;60001;48.404;11.738;2024-03-08T03:07:19;96072.34;;;2.47;79.11
31357;BME280;60001;48.404;11.738;2024-03-08T03:08:49;96069.09;;;2.59;78.56
31357;BME280;60001;48.404;11.738;2024-03-08T03:10:22;96073.59;;;2.32;78.41
31357;BME280;60001;48.404;11.738;2024-03-08T03:11:52;96074.75;;;2.36;78.83
31357;BME280;60001;48.404;11.738;2024-03-08T03:13:24;96072.16;;;2.36;79.33
31357;BME280;60001;48.404;11.738;2024-03-08T03:14:55;96070.72;;;2.46;78.78
31357;BME280;60001;48.404;11.738;2024-03-08T03:16:27;96063.91;;;2.52;78.78
31357;BME280;60001;48.404;11.738;2024-03-08T03:17:59;96067.34;;;2.39;79.13
31357;BME280;60001;48.404;11.738;2024-03-08T03:19:31;96062.94;;;2.40;78.94
31357;BME280;60001;48.404;11.738;2024-03-08T03:21:03;96063.34;;;2.37;79.30
31357;BME280;60001;48.404;11.738;2024-03-08T03:22:39;96054.09;;;2.47;79.10
31357;BME280;60001;48.404;11.738;2024-03-08T03:24:11;96055.72;;;2.35;79.45
31357;BME280;60001;48.404;11.738;2024-03-08T03:25:42;96049.91;;;2.40;79.63
31357;BME280;60001;48.404;11.738;2024-03-08T03:27:16;96057.09;;;2.51;79.32
31357;BME280;60001;48.404;11.738;2024-03-08T03:28:47;96052.69;;;2.45;79.21
31357;BME280;60001;48.404;11.738;2024-03-08T03:30:19;96054.13;;;2.34;79.48
31357;BME280;60001;48.404;11.738;2024-03-08T03:31:51;96061.97;;;2.28;79.83
31357;BME280;60001;48.404;11.738;2024-03-08T03:33:23;96059.31;;;2.41;79.82
31357;BME280;60001;48.404;11.738;2024-03-08T03:34:54;96059.31;;;2.41;79.73
31357;BME280;60001;48.404;11.738;2024-03-08T03:36:25;96064.78;;;2.26;80.26
31357;BME280;60001;48.404;11.738;2024-03-08T03:37:59;96045.75;;;2.19;80.74
31357;BME280;60001;48.404;11.738;2024-03-08T03:39:37;96055.72;;;2.35;80.36
31357;BME280;60001;48.404;11.738;2024-03-08T03:41:18;96046.09;;;2.36;80.58
31357;BME280;60001;48.404;11.738;2024-03-08T03:42:50;96059.94;;;2.36;80.80
31357;BME280;60001;48.404;11.738;2024-03-08T03:44:21;96058.34;;;2.29;80.52
31357;BME280;60001;48.404;11.738;2024-03-08T03:45:54;96052.97;;;2.30;81.23
31357;BME280;60001;48.404;11.738;2024-03-08T03:47:26;96050.97;;;2.26;80.78
31357;BME280;60001;48.404;11.738;2024-03-08T03:48:57;96060.97;;;2.29;81.51
31357;BME280;60001;48.404;11.738;2024-03-08T03:50:29;96064.97;;;2.38;81.34
31357;BME280;60001;48.404;11.738;2024-03-08T03:52:00;96053.34;;;2.34;80.64
31357;BME280;60001;48.404;11.738;2024-03-08T03:53:34;96060.56;;;2.32;81.69
31357;BME280;60001;48.404;11.738;2024-03-08T03:55:05;96056.78;;;2.21;81.50
31357;BME280;60001;48.404;11.738;2024-03-08T03:56:38;96061.13;;;2.40;81.16
31357;BME280;60001;48.404;11.738;2024-03-08T03:58:11;96057.69;;;2.46;81.22
31357;BME280;60001;48.404;11.738;2024-03-08T03:59:42;96052.50;;;2.46;81.16
31357;BME280;60001;48.404;11.738;2024-03-08T04:01:13;96046.91;;;2.36;81.39
31357;BME280;60001;48.404;11.738;2024-03-08T04:02:44;96061.72;;;2.42;81.01
31357;BME280;60001;48.404;11.738;2024-03-08T04:04:17;96053.13;;;2.35;81.40
31357;BME280;60001;48.404;11.738;2024-03-08T04:05:48;96051.72;;;2.39;81.81
31357;BME280;60001;48.404;11.738;2024-03-08T04:07:20;96039.50;;;2.33;81.05
31357;BME280;60001;48.404;11.738;2024-03-08T04:08:52;96060.34;;;2.40;81.68
31357;BME280;60001;48.404;11.738;2024-03-08T04:10:24;96043.91;;;2.39;81.06
31357;BME280;60001;48.404;11.738;2024-03-08T04:11:55;96053.91;;;2.42;81.12
31357;BME280;60001;48.404;11.738;2024-03-08T04:13:27;96037.88;;;2.39;81.05
31357;BME280;60001;48.404;11.738;2024-03-08T04:14:58;96047.31;;;2.40;81.51
31357;BME280;60001;48.404;11.738;2024-03-08T04:16:30;96042.28;;;2.45;81.31
31357;BME280;60001;48.404;11.738;2024-03-08T04:18:01;96040.72;;;2.37;80.52
31357;BME280;60001;48.404;11.738;2024-03-08T04:19:35;96037.84;;;2.52;80.92
31357;BME280;60001;48.404;11.738;2024-03-08T04:21:07;96036.88;;;2.40;81.25
31357;BME280;60001;48.404;11.738;2024-03-08T04:22:38;96037.88;;;2.45;81.27
31357;BME280;60001;48.404;11.738;2024-03-08T04:24:11;96032.66;;;2.45;81.40
31357;BME280;60001;48.404;11.738;2024-03-08T04:25:43;96038.88;;;2.44;80.95
31357;BME280;60001;48.404;11.738;2024-03-08T04:27:14;96030.69;;;2.34;81.58
31357;BME280;60001;48.404;11.738;2024-03-08T04:28:46;96033.69;;;2.38;81.78
31357;BME280;60001;48.404;11.738;2024-03-08T04:30:17;96026.06;;;2.36;81.30
31357;BME280;60001;48.404;11.738;2024-03-08T04:31:48;96025.50;;;2.28;81.52
31357;BME280;60001;48.404;11.738;2024-03-08T04:33:19;96032.50;;;2.34;81.35
31357;BME280;60001;48.404;11.738;2024-03-08T04:34:52;96028.66;;;2.36;81.19
31357;BME280;60001;48.404;11.738;2024-03-08T04:36:23;96035.69;;;2.29;81.40
31357;BME280;60001;48.404;11.738;2024-03-08T04:37:55;96030.28;;;2.37;81.04
31357;BME280;60001;48.404;11.738;2024-03-08T04:39:29;96027.66;;;2.44;80.87
31357;BME280;60001;48.404;11.738;2024-03-08T04:41:01;96039.03;;;2.50;81.03
31357;BME280;60001;48.404;11.738;2024-03-08T04:42:36;96025.53;;;2.14;82.07
31357;BME280;60001;48.404;11.738;2024-03-08T04:44:08;96034.88;;;2.35;81.70
31357;BME280;60001;48.404;11.738;2024-03-08T04:45:40;96028.63;;;2.43;80.84
31357;BME280;60001;48.404;11.738;2024-03-08T04:47:14;96024.47;;;2.29;81.02
31357;BME280;60001;48.404;11.738;2024-03-08T04:48:48;96012.25;;;2.29;80.82
31357;BME280;60001;48.404;11.738;2024-03-08T04:50:19;95983.28;;;2.12;80.89
31357;BME280;60001;48.404;11.738;2024-03-08T04:51:51;96025.13;;;2.24;81.17
31357;BME280;60001;48.404;11.738;2024-03-08T04:53:22;96029.06;;;2.40;80.52
31357;BME280;60001;48.404;11.738;2024-03-08T04:54:55;96022.03;;;2.47;80.64
31357;BME280;60001;48.404;11.738;2024-03-08T04:56:26;96028.78;;;2.55;80.07
31357;BME280;60001;48.404;11.738;2024-03-08T04:57:57;96021.81;;;2.48;79.95
31357;BME280;60001;48.404;11.738;2024-03-08T04:59:28;96023.34;;;2.63;80.02
31357;BME280;60001;48.404;11.738;2024-03-08T05:01:00;96021.41;;;2.52;79.92
31357;BME280;60001;48.404;11.738;2024-03-08T05:02:31;96013.97;;;2.55;79.86
31357;BME280;60001;48.404;11.738;2024-03-08T05:04:03;96012.22;;;2.42;80.37
31357;BME280;60001;48.404;11.738;2024-03-08T05:05:34;96018.06;;;2.38;80.52
31357;BME280;60001;48.404;11.738;2024-03-08T05:07:06;96006.03;;;2.37;80.67
31357;BME280;60001;48.404;11.738;2024-03-08T05:08:38;96007.47;;;2.26;80.83
31357;BME280;60001;48.404;11.738;2024-03-08T05:10:11;96010.63;;;2.35;80.31
31357;BME280;60001;48.404;11.738;2024-03-08T05:11:43;95997.81;;;2.33;80.31
31357;BME280;60001;48.404;11.738;2024-03-08T05:13:14;96004.28;;;2.24;80.42
31357;BME280;60001;48.404;11.738;2024-03-08T05:14:46;96007.63;;;2.38;80.05
31357;BME280;60001;48.404;11.738;2024-03-08T05:16:21;96005.41;;;2.41;80.30
31357;BME280;60001;48.404;11.738;2024-03-08T05:17:53;96009.59;;;2.42;80.01
31357;BME280;60001;48.404;11.738;2024-03-08T05:19:26;96012.81;;;2.44;80.25
31357;BME280;60001;48.404;11.738;2024-03-08T05:21:00;96012.56;;;2.53;79.79
31357;BME280;60001;48.404;11.738;2024-03-08T05:22:34;96011.03;;;2.38;80.16
31357;BME280;60001;48.404;11.738;2024-03-08T05:24:06;96012.38;;;2.47;79.45
31357;BME280;60001;48.404;11.738;2024-03-08T05:25:38;96016.59;;;2.48;79.08
31357;BME280;60001;48.404;11.738;2024-03-08T05:27:10;96011.56;;;2.54;79.15
31357;BME280;60001;48.404;11.738;2024-03-08T05:28:41;96014.97;;;2.54;79.21
31357;BME280;60001;48.404;11.738;2024-03-08T05:30:13;96009.19;;;2.45;78.56
31357;BME280;60001;48.404;11.738;2024-03-08T05:31:47;96006.56;;;2.52;79.06
31357;BME280;60001;48.404;11.738;2024-03-08T05:33:19;96012.38;;;2.54;78.83
31357;BME280;60001;48.404;11.738;2024-03-08T05:34:50;96007.03;;;2.36;79.63
31357;BME280;60001;48.404;11.738;2024-03-08T05:36:22;96013.00;;;2.43;79.29
31357;BME280;60001;48.404;11.738;2024-03-08T05:37:53;96012.19;;;2.49;78.67
31357;BME280;60001;48.404;11.738;2024-03-08T05:39:25;96003.59;;;2.42;78.90
31357;BME280;60001;48.404;11.738;2024-03-08T05:40:57;96000.91;;;2.17;80.14
31357;BME280;60001;48.404;11.738;2024-03-08T05:42:29;95961.66;;;2.12;78.96
31357;BME280;60001;48.404;11.738;2024-03-08T05:43:59;96008.84;;;2.29;78.65
31357;BME280;60001;48.404;11.738;2024-03-08T05:45:31;95993.72;;;2.06;80.18
31357;BME280;60001;48.404;11.738;2024-03-08T05:47:02;95981.94;;;1.97;80.47
31357;BME280;60001;48.404;11.738;2024-03-08T05:48:34;95998.47;;;2.22;79.97
31357;BME280;60001;48.404;11.738;2024-03-08T05:50:05;95996.22;;;2.32;79.67
31357;BME280;60001;48.404;11.738;2024-03-08T05:51:39;96002.47;;;2.25;80.00
31357;BME280;60001;48.404;11.738;2024-03-08T05:53:10;95997.88;;;2.20;79.43
31357;BME280;60001;48.404;11.738;2024-03-08T05:54:43;96000.81;;;2.37;79.21
31357;BME280;60001;48.404;11.738;2024-03-08T05:56:17;95998.41;;;2.35;79.12
31357;BME280;60001;48.404;11.738;2024-03-08T05:57:49;96001.81;;;2.36;78.95
31357;BME280;60001;48.404;11.738;2024-03-08T05:59:20;95998.03;;;2.32;78.60
31357;BME280;60001;48.404;11.738;2024-03-08T06:00:53;95997.06;;;2.26;78.86
31357;BME280;60001;48.404;11.738;2024-03-08T06:02:24;95999.03;;;2.31;79.12
31357;BME280;60001;48.404;11.738;2024-03-08T06:03:57;95994.47;;;2.19;79.42
31357;BME280;60001;48.404;11.738;2024-03-08T06:05:27;95976.25;;;2.13;78.72
31357;BME280;60001;48.404;11.738;2024-03-08T06:06:59;96000.44;;;2.27;79.10
31357;BME280;60001;48.404;11.738;2024-03-08T06:08:30;95996.22;;;2.32;79.15
31357;BME280;60001;48.404;11.738;2024-03-08T06:10:02;95998.41;;;2.35;78.82
31357;BME280;60001;48.404;11.738;2024-03-08T06:11:35;95995.63;;;2.37;78.76
31357;BME280;60001;48.404;11.738;2024-03-08T06:13:08;95996.25;;;2.26;78.99
31357;BME280;60001;48.404;11.738;2024-03-08T06:14:38;95986.38;;;2.34;78.57
31357;BME280;60001;48.404;11.738;2024-03-08T06:16:10;95995.25;;;2.20;78.72
31357;BME280;60001;48.404;11.738;2024-03-08T06:17:42;95984.22;;;2.31;78.79
31357;BME280;60001;48.404;11.738;2024-03-08T06:19:14;95985.38;;;2.35;78.28
31357;BME280;60001;48.404;11.738;2024-03-08T06:20:44;95988.16;;;2.40;78.46
31357;BME280;60001;48.404;11.738;2024-03-08T06:22:16;95987.97;;;2.42;78.59
31357;BME280;60001;48.404;11.738;2024-03-08T06:23:47;95987.41;;;2.33;78.64
31357;BME280;60001;48.404;11.738;2024-03-08T06:25:19;95983.53;;;2.42;78.20
31357;BME280;60001;48.404;11.738;2024-03-08T06:26:52;95968.22;;;2.21;78.41
31357;BME280;60001;48.404;11.738;2024-03-08T06:28:24;95989.56;;;2.43;77.96
31357;BME280;60001;48.404;11.738;2024-03-08T06:29:54;95988.94;;;2.47;77.73
31357;BME280;60001;48.404;11.738;2024-03-08T06:31:26;95975.63;;;2.24;78.36
31357;BME280;60001;48.404;11.738;2024-03-08T06:32:58;95991.22;;;2.31;78.78
31357;BME280;60001;48.404;11.738;2024-03-08T06:34:29;95990.84;;;2.27;78.45
31357;BME280;60001;48.404;11.738;2024-03-08T06:36:01;95989.81;;;2.28;78.49
31357;BME280;60001;48.404;11.738;2024-03-08T06:37:34;95991.25;;;2.24;79.00
31357;BME280;60001;48.404;11.738;2024-03-08T06:39:06;95984.06;;;2.19;78.70
31357;BME280;60001;48.404;11.738;2024-03-08T06:40:39;95990.59;;;2.35;79.32
31357;BME280;60001;48.404;11.738;2024-03-08T06:42:12;95983.00;;;2.34;78.94
31357;BME280;60001;48.404;11.738;2024-03-08T06:43:45;95985.78;;;2.39;78.37
31357;BME280;60001;48.404;11.738;2024-03-08T06:45:17;95990.97;;;2.45;78.57
31357;BME280;60001;48.404;11.738;2024-03-08T06:46:51;95972.94;;;2.44;78.46
31357;BME280;60001;48.404;11.738;2024-03-08T06:48:22;95987.53;;;2.52;78.33
31357;BME280;60001;48.404;11.738;2024-03-08T06:49:54;95987.38;;;2.40;78.39
31357;BME280;60001;48.404;11.738;2024-03-08T06:51:24;95991.53;;;2.47;78.69
31357;BME280;60001;48.404;11.738;2024-03-08T06:52:56;95977.44;;;2.24;78.84
31357;BME280;60001;48.404;11.738;2024-03-08T06:54:27;95986.78;;;2.38;78.86
31357;BME280;60001;48.404;11.738;2024-03-08T06:55:59;95989.75;;;2.41;78.14
31357;BME280;60001;48.404;11.738;2024-03-08T06:57:32;95953.19;;;2.23;78.20
31357;BME280;60001;48.404;11.738;2024-03-08T06:59:03;95984.00;;;2.33;78.45
31357;BME280;60001;48.404;11.738;2024-03-08T07:00:35;95987.31;;;2.53;78.88
31357;BME280;60001;48.404;11.738;2024-03-08T07:02:06;95992.13;;;2.50;78.58
31357;BME280;60001;48.404;11.738;2024-03-08T07:03:41;95989.66;;;2.61;78.35
31357;BME280;60001;48.404;11.738;2024-03-08T07:05:14;95990.47;;;2.62;77.62
31357;BME280;60001;48.404;11.738;2024-03-08T07:06:47;95982.81;;;2.67;77.28
31357;BME280;60001;48.404;11.738;2024-03-08T07:08:20;95991.25;;;2.62;78.23
31357;BME280;60001;48.404;11.738;2024-03-08T07:09:53;95982.78;;;2.73;78.01
31357;BME280;60001;48.404;11.738;2024-03-08T07:11:25;95980.63;;;2.64;77.00
31357;BME280;60001;48.404;11.738;2024-03-08T07:12:58;95982.41;;;2.70;76.81
31357;BME280;60001;48.404;11.738;2024-03-08T07:14:32;95989.59;;;2.74;77.54
31357;BME280;60001;48.404;11.738;2024-03-08T07:16:05;95997.13;;;2.89;77.27
31357;BME280;60001;48.404;11.738;2024-03-08T07:17:35;95991.16;;;2.82;76.03
31357;BME280;60001;48.404;11.738;2024-03-08T07:19:07;95986.53;;;2.84;76.57
31357;BME280;60001;48.404;11.738;2024-03-08T07:20:38;95983.94;;;2.78;76.69
31357;BME280;60001;48.404;11.738;2024-03-08T07:22:10;95986.66;;;2.96;76.26
31357;BME280;60001;48.404;11.738;2024-03-08T07:23:41;95996.72;;;2.92;78.20
31357;BME280;60001;48.404;11.738;2024-03-08T07:25:33;95997.03;;;2.71;77.29
31357;BME280;60001;48.404;11.738;2024-03-08T07:27:05;95983.91;;;2.53;77.89
31357;BME280;60001;48.404;11.738;2024-03-08T07:28:38;95994.66;;;2.63;77.34
31357;BME280;60001;48.404;11.738;2024-03-08T07:30:10;95994.13;;;2.54;77.53
31357;BME280;60001;48.404;11.738;2024-03-08T07:31:41;95989.75;;;2.41;78.02
31357;BME280;60001;48.404;11.738;2024-03-08T07:33:21;95984.16;;;2.76;76.98
31357;BME280;60001;48.404;11.738;2024-03-08T07:34:53;95986.78;;;2.76;76.79
31357;BME280;60001;48.404;11.738;2024-03-08T07:36:26;95994.19;;;2.79;77.39
31357;BME280;60001;48.404;11.738;2024-03-08T07:37:56;95985.63;;;2.97;76.75
31357;BME280;60001;48.404;11.738;2024-03-08T07:39:30;95986.16;;;2.81;76.14
31357;BME280;60001;48.404;11.738;2024-03-08T07:41:01;95980.75;;;2.75;77.04
31357;BME280;60001;48.404;11.738;2024-03-08T07:42:33;95980.75;;;2.75;76.74
31357;BME280;60001;48.404;11.738;2024-03-08T07:44:06;95985.63;;;2.72;76.75
31357;BME280;60001;48.404;11.738;2024-03-08T07:45:38;95983.94;;;2.78;76.44
31357;BME280;60001;48.404;11.738;2024-03-08T07:47:08;95982.53;;;2.82;76.28
31357;BME280;60001;48.404;11.738;2024-03-08T07:48:40;95980.53;;;2.77;76.41
31357;BME280;60001;48.404;11.738;2024-03-08T07:50:13;95985.44;;;2.67;76.56
31357;BME280;60001;48.404;11.738;2024-03-08T07:51:46;95981.59;;;2.69;76.83
31357;BME280;60001;48.404;11.738;2024-03-08T07:53:17;95986.53;;;2.84;77.00
31357;BME280;60001;48.404;11.738;2024-03-08T07:54:49;95980.06;;;2.93;76.70
31357;BME280;60001;48.404;11.738;2024-03-08T07:56:20;95990.00;;;3.03;76.90
31357;BME280;60001;48.404;11.738;2024-03-08T07:57:52;95983.72;;;2.86;76.54
31357;BME280;60001;48.404;11.738;2024-03-08T07:59:24;95985.69;;;2.90;76.38
31357;BME280;60001;48.404;11.738;2024-03-08T08:00:56;95979.81;;;3.01;76.25
31357;BME280;60001;48.404;11.738;2024-03-08T08:02:27;95977.50;;;3.12;76.02
31357;BME280;60001;48.404;11.738;2024-03-08T08:03:59;95953.13;;;2.99;76.19
31357;BME280;60001;48.404;11.738;2024-03-08T08:05:32;95978.75;;;3.09;75.92
31357;BME280;60001;48.404;11.738;2024-03-08T08:07:06;95977.78;;;3.03;77.89